createdAt,value
2019-01-21T00:00:42.876Z,495.00
2019-01-21T00:03:14.734Z,527.17
2019-01-21T00:05:41.885Z,502.40
2019-01-21T00:08:10.579Z,495.40
2019-01-21T00:10:39.131Z,491.23
2019-01-21T00:13:07.622Z,477.60
2019-01-21T00:15:36.421Z,488.67
2019-01-21T00:18:05.369Z,502.17
2019-01-21T00:20:33.939Z,484.20
2019-01-21T00:23:02.669Z,501.30
2019-01-21T00:25:31.314Z,510.20
2019-01-21T00:28:00.289Z,497.17
2019-01-21T00:30:28.996Z,517.27
2019-01-21T00:32:57.749Z,523.33
2019-01-21T00:35:26.275Z,501.90
2019-01-21T00:37:54.943Z,482.23
2019-01-21T00:40:23.683Z,496.60
2019-01-21T00:42:52.203Z,486.43
2019-01-21T00:45:20.848Z,485.90
2019-01-21T00:47:49.384Z,488.77
2019-01-21T00:50:17.880Z,482.50
2019-01-21T00:52:46.612Z,472.43
2019-01-21T00:55:15.290Z,459.80
2019-01-21T00:57:43.920Z,467.70
2019-01-21T01:00:18.723Z,463.40
2019-01-21T01:02:47.283Z,463.17
2019-01-21T01:05:15.859Z,448.07
2019-01-21T01:07:44.452Z,431.07
2019-01-21T01:10:13.308Z,432.70
2019-01-21T01:12:42.082Z,424.00
2019-01-21T01:15:12.806Z,416.47
2019-01-21T01:17:41.323Z,407.83
2019-01-21T01:20:14.839Z,420.23
2019-01-21T01:22:43.442Z,429.40
2019-01-21T01:25:12.051Z,446.97
2019-01-21T01:27:40.649Z,414.77
2019-01-21T01:30:12.237Z,428.70
2019-01-21T01:32:40.969Z,430.00
2019-01-21T01:35:10.645Z,427.37
2019-01-21T01:37:39.300Z,431.97
2019-01-21T01:40:11.082Z,419.77
2019-01-21T01:42:39.572Z,444.07
2019-01-21T01:45:11.005Z,437.53
2019-01-21T01:47:44.685Z,416.17
2019-01-21T01:50:09.739Z,422.50
2019-01-21T01:52:38.391Z,424.23
2019-01-21T01:55:09.648Z,412.70
2019-01-21T01:57:38.233Z,421.97
2019-01-21T02:00:15.955Z,414.27
2019-01-21T02:02:44.566Z,408.40
2019-01-21T02:05:13.301Z,413.80
2019-01-21T02:07:41.948Z,413.60
2019-01-21T02:10:12.742Z,404.87
2019-01-21T02:12:41.454Z,406.10
2019-01-21T02:15:12.606Z,382.87
2019-01-21T02:17:41.301Z,361.23
2019-01-21T02:20:15.207Z,363.07
2019-01-21T02:22:49.001Z,351.50
2019-01-21T02:25:17.882Z,357.10
2019-01-21T02:27:55.606Z,344.63
2019-01-21T02:30:44.044Z,348.83
2019-01-21T02:33:38.903Z,337.50
2019-01-21T02:36:19.636Z,357.70
2019-01-21T02:38:57.864Z,342.77
2019-01-21T02:41:29.843Z,326.57
2019-01-21T02:44:04.591Z,330.07
2019-01-21T02:46:45.165Z,310.47
2019-01-21T02:49:42.915Z,296.20
2019-01-21T02:52:14.777Z,278.17
2019-01-21T02:55:03.264Z,247.97
2019-01-21T02:57:37.795Z,254.73
2019-01-21T03:00:33.805Z,265.47
2019-01-21T03:03:14.522Z,272.90
2019-01-21T03:05:48.984Z,269.17
2019-01-21T03:08:29.951Z,283.60
2019-01-21T03:11:20.078Z,308.77
2019-01-21T03:13:57.644Z,303.40
2019-01-21T03:16:59.908Z,287.80
2019-01-21T03:19:43.671Z,235.17
2019-01-21T03:22:29.879Z,198.13
2019-01-21T03:25:13.849Z,164.83
2019-01-21T03:28:08.200Z,213.43
2019-01-21T03:30:39.982Z,255.80
2019-01-21T03:33:31.829Z,273.57
2019-01-21T03:36:26.220Z,235.20
2019-01-21T03:39:15.628Z,238.47
2019-01-21T03:41:53.130Z,241.33
2019-01-21T03:44:33.651Z,243.07
2019-01-21T03:47:05.545Z,250.33
2019-01-21T03:49:43.341Z,234.07
2019-01-21T03:52:17.979Z,215.13
2019-01-21T03:54:47.780Z,219.83
2019-01-21T03:57:19.445Z,180.13
2019-01-21T04:00:06.331Z,151.13
2019-01-21T04:03:08.680Z,146.53
2019-01-21T04:05:46.361Z,163.37
2019-01-21T04:08:18.266Z,172.80
2019-01-21T04:11:07.783Z,173.30
2019-01-21T04:13:51.409Z,144.50
2019-01-21T04:16:23.289Z,138.43
2019-01-21T04:19:11.589Z,158.83
2019-01-21T04:22:01.672Z,140.63
2019-01-21T04:24:39.574Z,139.50
2019-01-21T04:27:35.185Z,162.73
2019-01-21T04:30:12.194Z,153.23
2019-01-21T04:32:52.820Z,149.83
2019-01-21T04:35:47.125Z,141.83
2019-01-21T04:38:28.105Z,164.10
2019-01-21T04:41:18.226Z,167.33
2019-01-21T04:44:12.739Z,169.53
2019-01-21T04:46:59.741Z,180.70
2019-01-21T04:49:48.227Z,160.63
2019-01-21T04:52:20.070Z,156.93
2019-01-21T04:54:54.759Z,144.40
2019-01-21T04:57:38.340Z,135.33
2019-01-21T05:00:16.078Z,132.27
2019-01-21T05:02:48.232Z,143.70
2019-01-21T05:05:20.108Z,138.00
2019-01-21T05:08:03.519Z,141.53
2019-01-21T05:10:59.761Z,149.10
2019-01-21T05:13:37.639Z,139.97
2019-01-21T05:16:18.332Z,139.40
2019-01-21T05:19:21.799Z,138.57
2019-01-21T05:22:08.891Z,147.97
2019-01-21T05:25:03.269Z,141.07
2019-01-21T05:27:43.486Z,147.23
2019-01-21T05:30:32.816Z,140.17
2019-01-21T05:33:04.650Z,146.73
2019-01-21T05:35:51.207Z,144.60
2019-01-21T05:38:32.016Z,148.93
2019-01-21T05:41:12.168Z,156.20
2019-01-21T05:44:02.106Z,141.53
2019-01-21T05:46:42.635Z,161.83
2019-01-21T05:49:20.557Z,142.10
2019-01-21T05:52:10.036Z,148.17
2019-01-21T05:54:59.578Z,166.13
2019-01-21T05:57:46.509Z,155.20
2019-01-21T06:00:40.970Z,235.33
2019-01-21T06:03:30.876Z,207.97
2019-01-21T06:06:18.960Z,164.83
2019-01-21T06:08:53.409Z,145.33
2019-01-21T06:11:25.332Z,153.30
2019-01-21T06:14:15.125Z,134.47
2019-01-21T06:16:49.689Z,136.40
2019-01-21T06:19:36.481Z,140.47
2019-01-21T06:22:08.326Z,134.70
2019-01-21T06:24:45.928Z,131.63
2019-01-21T06:27:29.717Z,146.50
2019-01-21T06:30:24.208Z,138.17
2019-01-21T06:33:01.476Z,126.63
2019-01-21T06:35:49.683Z,134.47
2019-01-21T06:38:21.497Z,112.47
2019-01-21T06:41:09.762Z,128.93
2019-01-21T06:43:41.607Z,127.47
2019-01-21T06:46:19.443Z,132.70
2019-01-21T06:49:06.559Z,147.37
2019-01-21T06:51:44.051Z,144.77
2019-01-21T06:54:33.927Z,159.47
2019-01-21T06:57:23.500Z,196.30
2019-01-21T06:59:55.262Z,182.43
2019-01-21T07:02:46.659Z,163.73
2019-01-21T07:05:24.160Z,121.90
2019-01-21T07:08:07.800Z,120.10
2019-01-21T07:10:45.485Z,125.73
2019-01-21T07:13:37.606Z,104.70
2019-01-21T07:16:15.210Z,125.50
2019-01-21T07:19:01.964Z,120.53
2019-01-21T07:21:43.076Z,121.53
2019-01-21T07:24:17.984Z,118.20
2019-01-21T07:26:59.469Z,137.77
2019-01-21T07:29:37.563Z,113.37
2019-01-21T07:32:24.345Z,115.33
2019-01-21T07:35:13.027Z,103.70
2019-01-21T07:37:45.179Z,108.83
2019-01-21T07:40:38.022Z,109.47
2019-01-21T07:43:18.688Z,142.33
2019-01-21T07:45:50.529Z,225.23
2019-01-21T07:48:36.968Z,117.67
2019-01-21T07:51:31.240Z,129.23
2019-01-21T07:54:11.726Z,103.80
2019-01-21T07:56:52.751Z,141.63
2019-01-21T07:59:33.410Z,104.50
2019-01-21T08:02:30.798Z,116.23
2019-01-21T08:05:20.516Z,108.43
2019-01-21T08:08:01.231Z,109.50
2019-01-21T08:10:55.596Z,117.63
2019-01-21T08:13:48.076Z,127.80
2019-01-21T08:16:31.740Z,228.07
2019-01-21T08:19:12.508Z,113.10
2019-01-21T08:21:56.362Z,123.90
2019-01-21T08:24:34.207Z,130.90
2019-01-21T08:27:14.625Z,103.13
2019-01-21T08:29:46.561Z,103.37
2019-01-21T08:32:33.318Z,106.07
2019-01-21T08:35:10.961Z,103.30
2019-01-21T08:38:09.579Z,108.23
2019-01-21T08:40:56.240Z,110.97
2019-01-21T08:43:30.723Z,113.13
2019-01-21T08:46:05.047Z,126.67
2019-01-21T08:48:36.838Z,104.40
2019-01-21T08:51:23.417Z,97.97
2019-01-21T08:54:04.216Z,102.57
2019-01-21T08:56:55.517Z,110.53
2019-01-21T08:59:39.243Z,106.60
2019-01-21T09:02:13.952Z,101.37
2019-01-21T09:05:02.473Z,117.87
2019-01-21T09:07:48.683Z,99.70
2019-01-21T09:10:39.865Z,126.87
2019-01-21T09:13:23.993Z,95.97
2019-01-21T09:16:13.603Z,100.47
2019-01-21T09:18:48.097Z,101.00
2019-01-21T09:21:28.748Z,108.57
2019-01-21T09:24:17.138Z,111.20
2019-01-21T09:27:04.089Z,107.10
2019-01-21T09:29:47.746Z,108.97
2019-01-21T09:32:22.841Z,108.97
2019-01-21T09:34:57.347Z,108.83
2019-01-21T09:37:44.224Z,107.63
2019-01-21T09:40:15.933Z,112.17
2019-01-21T09:43:03.018Z,124.83
2019-01-21T09:46:08.163Z,111.33
2019-01-21T09:48:35.769Z,103.20
2019-01-21T09:51:05.368Z,101.90
2019-01-21T09:53:34.188Z,104.83
2019-01-21T09:56:03.435Z,103.07
2019-01-21T09:58:32.928Z,107.90
2019-01-21T10:01:01.948Z,119.43
2019-01-21T10:03:30.994Z,118.17
2019-01-21T10:06:02.883Z,119.57
2019-01-21T10:08:46.891Z,120.00
2019-01-21T10:11:37.939Z,105.90
2019-01-21T10:14:28.314Z,114.57
2019-01-21T10:17:02.834Z,120.87
2019-01-21T10:19:57.627Z,99.57
2019-01-21T10:22:32.531Z,145.63
2019-01-21T10:25:16.682Z,133.07
2019-01-21T10:27:49.496Z,118.33
2019-01-21T10:30:35.777Z,121.50
2019-01-21T10:33:30.063Z,131.73
2019-01-21T10:36:22.817Z,132.87
2019-01-21T10:39:10.985Z,111.10
2019-01-21T10:41:51.404Z,111.80
2019-01-21T10:44:39.671Z,114.37
2019-01-21T10:47:20.327Z,115.57
2019-01-21T10:50:03.840Z,106.33
2019-01-21T10:52:44.319Z,111.90
2019-01-21T10:55:31.064Z,109.87
2019-01-21T10:58:08.761Z,122.60
2019-01-21T11:01:12.799Z,105.57
2019-01-21T11:03:50.540Z,101.73
2019-01-21T11:06:41.825Z,94.60
2019-01-21T11:09:26.603Z,110.40
2019-01-21T11:12:30.871Z,110.30
2019-01-21T11:15:02.632Z,109.43
2019-01-21T11:17:37.357Z,110.53
2019-01-21T11:20:32.094Z,108.90
2019-01-21T11:23:06.536Z,114.77
2019-01-21T11:25:47.018Z,123.17
2019-01-21T11:28:36.670Z,128.43
2019-01-21T11:31:14.326Z,109.50
2019-01-21T11:33:54.707Z,117.93
2019-01-21T11:36:48.976Z,125.73
2019-01-21T11:39:26.730Z,119.13
2019-01-21T11:42:21.120Z,108.97
2019-01-21T11:44:55.660Z,116.93
2019-01-21T11:47:50.057Z,126.07
2019-01-21T11:50:43.384Z,125.57
2019-01-21T11:53:21.052Z,117.33
2019-01-21T11:55:58.857Z,152.33
2019-01-21T11:58:39.791Z,118.80
2019-01-21T12:01:32.745Z,125.60
2019-01-21T12:04:27.713Z,124.83
2019-01-21T12:07:17.714Z,122.13
2019-01-21T12:09:49.497Z,888.47
2019-01-21T12:12:23.840Z,141.07
2019-01-21T12:15:19.983Z,101.87
2019-01-21T12:18:03.124Z,108.80
2019-01-21T12:20:34.970Z,123.27
2019-01-21T12:23:06.810Z,118.50
2019-01-21T12:25:41.338Z,101.17
2019-01-21T12:28:18.973Z,114.27
2019-01-21T12:30:59.390Z,90.97
2019-01-21T12:33:50.728Z,105.47
2019-01-21T12:36:22.607Z,115.40
2019-01-21T12:39:12.391Z,184.03
2019-01-21T12:41:46.854Z,144.27
2019-01-21T12:44:30.536Z,273.97
2019-01-21T12:47:14.126Z,281.07
2019-01-21T12:49:57.879Z,148.00
2019-01-21T12:52:32.407Z,102.73
2019-01-21T12:55:12.923Z,90.97
2019-01-21T12:57:47.568Z,133.97
2019-01-21T13:00:51.121Z,97.87
2019-01-21T13:03:51.592Z,102.93
2019-01-21T13:06:56.995Z,122.77
2019-01-21T13:09:50.053Z,121.73
2019-01-21T13:12:38.565Z,145.70
2019-01-21T13:15:13.041Z,110.20
2019-01-21T13:18:01.400Z,132.03
2019-01-21T13:20:33.266Z,128.83
2019-01-21T13:23:08.074Z,119.37
2019-01-21T13:26:02.513Z,135.40
2019-01-21T13:28:40.276Z,128.70
2019-01-21T13:31:13.201Z,109.50
2019-01-21T13:34:01.692Z,131.63
2019-01-21T13:36:48.968Z,126.73
2019-01-21T13:39:26.561Z,116.97
2019-01-21T13:42:00.916Z,180.97
2019-01-21T13:44:47.166Z,139.40
2019-01-21T13:47:37.138Z,137.13
2019-01-21T13:50:17.297Z,141.60
2019-01-21T13:53:07.436Z,144.37
2019-01-21T13:55:39.300Z,140.60
2019-01-21T13:58:29.064Z,147.00
2019-01-21T14:01:00.852Z,114.60
2019-01-21T14:03:32.863Z,131.37
2019-01-21T14:06:13.798Z,136.37
2019-01-21T14:08:54.114Z,127.03
2019-01-21T14:11:37.721Z,151.53
2019-01-21T14:14:09.681Z,138.57
2019-01-21T14:16:50.676Z,143.80
2019-01-21T14:19:26.295Z,175.47
2019-01-21T14:22:10.166Z,204.97
2019-01-21T14:24:54.228Z,133.53
2019-01-21T14:27:41.047Z,169.30
2019-01-21T14:30:24.705Z,168.90
2019-01-21T14:33:08.482Z,176.80
2019-01-21T14:35:52.210Z,177.97
2019-01-21T14:38:33.089Z,171.80
2019-01-21T14:41:13.595Z,142.47
2019-01-21T14:44:04.686Z,209.97
2019-01-21T14:46:48.511Z,234.77
2019-01-21T14:49:20.355Z,243.27
2019-01-21T14:51:52.202Z,246.37
2019-01-21T14:54:29.962Z,190.60
2019-01-21T14:57:07.624Z,291.70
2019-01-21T15:00:08.348Z,294.30
2019-01-21T15:03:03.705Z,329.87
2019-01-21T15:06:03.089Z,332.27
2019-01-21T15:08:37.976Z,473.13
2019-01-21T15:11:12.437Z,531.57
2019-01-21T15:13:56.036Z,506.27
2019-01-21T15:16:36.671Z,449.17
2019-01-21T15:19:11.490Z,249.47
2019-01-21T15:21:55.382Z,214.67
2019-01-21T15:24:50.977Z,234.47
2019-01-21T15:27:34.787Z,189.73
2019-01-21T15:30:15.477Z,168.53
2019-01-21T15:32:53.027Z,233.50
2019-01-21T15:35:34.151Z,207.50
2019-01-21T15:38:24.359Z,300.60
2019-01-21T15:41:01.660Z,308.67
2019-01-21T15:43:45.452Z,277.13
2019-01-21T15:46:20.522Z,294.00
2019-01-21T15:48:57.704Z,416.80
2019-01-21T15:51:41.399Z,366.00
2019-01-21T15:54:22.242Z,371.43
2019-01-21T15:57:02.555Z,282.93
2019-01-21T15:59:37.245Z,343.60
2019-01-21T16:02:09.133Z,245.67
2019-01-21T16:04:50.071Z,255.73
2019-01-21T16:07:27.981Z,261.87
2019-01-21T16:09:59.858Z,289.63
2019-01-21T16:12:31.629Z,416.20
2019-01-21T16:15:18.738Z,438.50
2019-01-21T16:17:53.278Z,479.33
2019-01-21T16:20:25.784Z,597.47
2019-01-21T16:23:12.421Z,493.63
2019-01-21T16:25:44.261Z,553.73
2019-01-21T16:28:18.682Z,741.13
2019-01-21T16:30:59.465Z,445.30
2019-01-21T16:33:52.121Z,292.93
2019-01-21T16:36:51.267Z,415.00
2019-01-21T16:39:26.017Z,400.80
2019-01-21T16:42:00.620Z,472.73
2019-01-21T16:44:29.597Z,324.37
2019-01-21T16:46:58.470Z,409.27
2019-01-21T16:49:27.369Z,298.80
2019-01-21T16:51:55.971Z,288.53
2019-01-21T16:54:24.894Z,282.57
2019-01-21T16:56:53.614Z,170.63
2019-01-21T16:59:22.135Z,253.97
2019-01-21T17:01:50.901Z,229.43
2019-01-21T17:04:19.481Z,248.50
2019-01-21T17:06:49.060Z,228.67
2019-01-21T17:09:17.652Z,248.33
2019-01-21T17:11:46.340Z,249.70
2019-01-21T17:14:14.854Z,226.67
2019-01-21T17:16:43.430Z,263.97
2019-01-21T17:19:12.258Z,291.27
2019-01-21T17:21:40.932Z,659.20
2019-01-21T17:24:09.892Z,387.27
2019-01-21T17:26:38.569Z,602.80
2019-01-21T17:29:07.265Z,427.27
2019-01-21T17:31:35.971Z,626.23
2019-01-21T17:34:04.814Z,652.90
2019-01-21T17:36:33.510Z,678.00
2019-01-21T17:39:02.101Z,594.30
2019-01-21T17:41:30.723Z,535.03
2019-01-21T17:43:59.853Z,413.30
2019-01-21T17:46:28.557Z,321.60
2019-01-21T17:48:57.183Z,373.37
2019-01-21T17:51:25.705Z,316.23
2019-01-21T17:53:54.444Z,331.87
2019-01-21T17:56:23.044Z,327.70
2019-01-21T17:58:51.693Z,300.37
2019-01-21T18:01:20.294Z,281.97
2019-01-21T18:03:48.939Z,289.30
2019-01-21T18:06:17.485Z,323.33
2019-01-21T18:08:46.116Z,347.27
2019-01-21T18:11:14.794Z,401.33
2019-01-21T18:13:43.568Z,374.97
2019-01-21T18:16:12.333Z,392.07
2019-01-21T18:18:41.037Z,425.67
2019-01-21T18:21:09.715Z,539.57
2019-01-21T18:23:38.340Z,500.23
2019-01-21T18:26:07.149Z,433.63
2019-01-21T18:28:35.756Z,475.97
2019-01-21T18:31:04.315Z,532.30
2019-01-21T18:33:32.986Z,410.43
2019-01-21T18:36:01.523Z,449.53
2019-01-21T18:38:30.177Z,465.00
2019-01-21T18:40:58.894Z,507.60
2019-01-21T18:43:27.402Z,410.70
2019-01-21T18:45:55.928Z,467.00
2019-01-21T18:48:24.551Z,360.07
2019-01-21T18:50:53.286Z,540.03
2019-01-21T18:53:21.947Z,530.50
2019-01-21T18:55:50.628Z,639.07
2019-01-21T18:58:19.196Z,375.27
2019-01-21T19:00:48.123Z,356.70
2019-01-21T19:03:16.836Z,450.90
2019-01-21T19:05:45.565Z,361.57
2019-01-21T19:08:14.173Z,481.30
2019-01-21T19:10:42.891Z,430.87
2019-01-21T19:13:11.532Z,281.77
2019-01-21T19:15:40.154Z,249.67
2019-01-21T19:18:09.214Z,373.67
2019-01-21T19:20:37.911Z,278.93
2019-01-21T19:23:06.633Z,310.83
2019-01-21T19:25:35.337Z,303.63
2019-01-21T19:28:03.953Z,249.23
2019-01-21T19:30:32.493Z,276.57
2019-01-21T19:33:01.115Z,261.60
2019-01-21T19:35:32.043Z,277.70
2019-01-21T19:38:00.538Z,254.90
2019-01-21T19:40:29.259Z,262.03
2019-01-21T19:42:57.853Z,246.07
2019-01-21T19:45:26.501Z,280.47
2019-01-21T19:47:55.198Z,238.47
2019-01-21T19:50:24.253Z,226.97
2019-01-21T19:52:52.989Z,303.80
2019-01-21T19:55:24.632Z,274.43
2019-01-21T19:57:53.336Z,295.90
2019-01-21T20:00:23.057Z,268.57
2019-01-21T20:02:51.747Z,248.97
2019-01-21T20:05:20.378Z,257.43
2019-01-21T20:07:48.843Z,264.40
2019-01-21T20:10:20.160Z,241.40
2019-01-21T20:12:48.600Z,258.80
2019-01-21T20:15:18.156Z,340.30
2019-01-21T20:17:46.771Z,305.87
2019-01-21T20:20:27.359Z,308.93
2019-01-21T20:22:57.554Z,310.13
2019-01-21T20:25:26.484Z,340.00
2019-01-21T20:27:56.193Z,295.73
2019-01-21T20:30:25.648Z,318.10
2019-01-21T20:32:54.332Z,281.23
2019-01-21T20:35:23.183Z,363.43
2019-01-21T20:37:52.030Z,277.53
2019-01-21T20:40:28.460Z,313.90
2019-01-21T20:42:58.142Z,268.80
2019-01-21T20:45:26.748Z,318.13
2019-01-21T20:47:55.488Z,398.20
2019-01-21T20:50:29.697Z,406.07
2019-01-21T20:52:58.557Z,264.10
2019-01-21T20:55:27.233Z,318.10
2019-01-21T20:57:56.082Z,290.77
2019-01-21T21:00:26.766Z,295.47
2019-01-21T21:03:02.152Z,265.40
2019-01-21T21:05:30.846Z,355.50
2019-01-21T21:07:59.904Z,353.30
2019-01-21T21:10:29.014Z,339.77
2019-01-21T21:12:58.343Z,415.70
2019-01-21T21:15:29.969Z,260.13
2019-01-21T21:17:58.816Z,269.80
2019-01-21T21:20:27.697Z,456.53
2019-01-21T21:22:56.744Z,351.33
2019-01-21T21:25:26.273Z,491.37
2019-01-21T21:27:56.527Z,308.10
2019-01-21T21:30:31.539Z,282.83
2019-01-21T21:33:00.652Z,283.93
2019-01-21T21:35:29.579Z,294.13
2019-01-21T21:37:58.369Z,320.73
2019-01-21T21:40:27.033Z,311.53
2019-01-21T21:42:55.804Z,264.13
2019-01-21T21:45:24.640Z,287.63
2019-01-21T21:47:53.671Z,266.27
2019-01-21T21:50:30.452Z,342.50
2019-01-21T21:52:59.146Z,320.97
2019-01-21T21:55:27.946Z,313.90
2019-01-21T21:57:56.924Z,291.43
2019-01-21T22:00:28.953Z,341.40
2019-01-21T22:02:57.638Z,255.50
2019-01-21T22:05:26.408Z,279.53
2019-01-21T22:07:55.125Z,286.93
2019-01-21T22:10:25.661Z,276.40
2019-01-21T22:12:54.632Z,281.80
2019-01-21T22:15:24.456Z,266.80
2019-01-21T22:17:53.223Z,218.80
2019-01-21T22:20:24.962Z,234.30
2019-01-21T22:22:53.754Z,260.10
2019-01-21T22:25:22.739Z,281.17
2019-01-21T22:27:51.770Z,288.77
2019-01-21T22:30:23.183Z,281.17
2019-01-21T22:32:52.047Z,291.23
2019-01-21T22:35:20.768Z,263.13
2019-01-21T22:37:49.896Z,311.13
2019-01-21T22:40:20.610Z,278.70
2019-01-21T22:42:50.013Z,238.80
2019-01-21T22:45:19.765Z,251.27
2019-01-21T22:47:48.497Z,227.87
2019-01-21T22:50:17.850Z,274.23
2019-01-21T22:52:46.617Z,272.30
2019-01-21T22:55:16.200Z,241.43
2019-01-21T22:57:45.045Z,277.17
2019-01-21T23:00:33.791Z,258.27
2019-01-21T23:03:02.581Z,255.10
2019-01-21T23:05:31.396Z,245.23
2019-01-21T23:08:00.179Z,256.47
2019-01-21T23:10:28.963Z,204.17
2019-01-21T23:12:57.650Z,247.33
2019-01-21T23:15:26.296Z,222.40
2019-01-21T23:17:55.001Z,237.93
2019-01-21T23:20:23.598Z,269.63
2019-01-21T23:22:52.310Z,300.23
2019-01-21T23:25:21.327Z,294.27
2019-01-21T23:27:49.885Z,313.53
2019-01-21T23:30:22.757Z,344.33
2019-01-21T23:32:51.505Z,306.77
2019-01-21T23:35:21.057Z,294.63
2019-01-21T23:37:49.695Z,317.40
2019-01-21T23:40:18.474Z,265.03
2019-01-21T23:42:47.016Z,292.07
2019-01-21T23:45:15.555Z,301.73
2019-01-21T23:47:44.113Z,289.70
2019-01-21T23:50:16.934Z,299.20
2019-01-21T23:52:45.590Z,287.77
2019-01-21T23:55:14.259Z,272.17
2019-01-21T23:57:42.770Z,288.00
